createdAt,value
2023-10-09T00:00:36.664Z,1.90
2023-10-09T00:03:08.243Z,2.10
2023-10-09T00:05:47.563Z,1.60
2023-10-09T00:08:22.986Z,1.70
2023-10-09T00:10:55.289Z,2.97
2023-10-09T00:13:32.038Z,2.17
2023-10-09T00:16:15.919Z,2.00
2023-10-09T00:18:47.936Z,1.60
2023-10-09T00:21:21.656Z,2.00
2023-10-09T00:24:00.569Z,1.67
2023-10-09T00:26:32.204Z,1.60
2023-10-09T00:29:06.740Z,1.83
2023-10-09T00:31:38.423Z,1.83
2023-10-09T00:34:08.034Z,2.00
2023-10-09T00:36:51.742Z,2.53
2023-10-09T00:39:46.265Z,1.65
2023-10-09T00:42:16.074Z,1.85
2023-10-09T00:44:49.713Z,1.73
2023-10-09T00:47:27.644Z,1.77
2023-10-09T00:50:02.192Z,1.95
2023-10-09T00:52:38.281Z,1.58
2023-10-09T00:55:15.752Z,1.88
2023-10-09T00:57:57.980Z,1.80
2023-10-09T01:00:34.957Z,1.77
2023-10-09T01:03:21.193Z,1.88
2023-10-09T01:05:59.445Z,1.60
2023-10-09T01:08:32.081Z,1.90
2023-10-09T01:11:10.849Z,2.05
2023-10-09T01:13:54.243Z,1.50
2023-10-09T01:16:25.517Z,1.73
2023-10-09T01:18:58.741Z,2.00
2023-10-09T01:21:28.626Z,2.22
2023-10-09T01:24:06.266Z,1.70
2023-10-09T01:26:45.970Z,1.90
2023-10-09T01:29:20.087Z,1.75
2023-10-09T01:31:56.246Z,2.00
2023-10-09T01:34:40.058Z,2.40
2023-10-09T01:37:13.409Z,2.00
2023-10-09T01:39:51.825Z,1.77
2023-10-09T01:42:29.307Z,1.98
2023-10-09T01:44:59.958Z,2.30
2023-10-09T01:47:33.309Z,3.45
2023-10-09T01:50:06.185Z,2.50
2023-10-09T01:55:10.732Z,1.70
2023-10-09T01:57:40.795Z,2.20
2023-10-09T02:00:10.696Z,2.35
2023-10-09T02:02:46.390Z,2.33
2023-10-09T02:05:26.637Z,2.20
2023-10-09T02:07:58.129Z,2.45
2023-10-09T02:10:33.019Z,2.13
2023-10-09T02:13:08.366Z,2.80
2023-10-09T02:15:53.001Z,2.17
2023-10-09T02:18:28.796Z,2.30
2023-10-09T02:21:16.449Z,2.20
2023-10-09T02:23:51.558Z,2.28
2023-10-09T02:26:27.009Z,2.53
2023-10-09T02:29:01.196Z,2.55
2023-10-09T02:31:37.580Z,2.17
2023-10-09T02:34:13.893Z,2.45
2023-10-09T02:36:50.906Z,2.00
2023-10-09T02:39:25.132Z,2.30
2023-10-09T02:41:59.815Z,2.47
2023-10-09T02:44:30.996Z,2.10
2023-10-09T02:47:00.038Z,2.25
2023-10-09T02:49:29.701Z,1.80
2023-10-09T02:51:58.571Z,2.38
2023-10-09T02:54:37.085Z,2.55
2023-10-09T02:57:16.905Z,2.90
2023-10-09T02:59:46.499Z,1.90
2023-10-09T03:02:14.927Z,2.33
2023-10-09T03:04:44.602Z,2.30
2023-10-09T03:07:15.363Z,2.25
2023-10-09T03:09:44.006Z,2.42
2023-10-09T03:12:14.475Z,1.83
2023-10-09T03:14:43.952Z,2.10
2023-10-09T03:17:13.934Z,2.38
2023-10-09T03:19:45.029Z,1.90
2023-10-09T03:22:14.173Z,2.10
2023-10-09T03:24:48.821Z,2.50
2023-10-09T03:27:23.592Z,1.92
2023-10-09T03:29:54.987Z,1.98
2023-10-09T03:32:23.885Z,2.13
2023-10-09T03:34:52.732Z,1.95
2023-10-09T03:37:35.130Z,2.03
2023-10-09T03:40:04.743Z,2.20
2023-10-09T03:42:37.709Z,2.30
2023-10-09T03:45:14.001Z,1.58
2023-10-09T03:47:44.733Z,2.10
2023-10-09T03:50:25.197Z,2.45
2023-10-09T03:52:56.308Z,2.05
2023-10-09T03:55:29.045Z,1.70
2023-10-09T03:58:00.984Z,2.47
2023-10-09T04:00:31.383Z,2.33
2023-10-09T04:03:01.032Z,2.20
2023-10-09T04:05:30.113Z,2.55
2023-10-09T04:08:02.655Z,2.05
2023-10-09T04:10:54.198Z,2.17
2023-10-09T04:13:34.000Z,2.13
2023-10-09T04:16:10.905Z,2.20
2023-10-09T04:18:41.273Z,2.30
2023-10-09T04:21:20.403Z,2.10
2023-10-09T04:24:23.817Z,2.25
2023-10-09T04:26:57.379Z,2.55
2023-10-09T04:29:29.704Z,2.00
2023-10-09T04:32:01.882Z,2.25
2023-10-09T04:34:36.077Z,2.33
2023-10-09T04:37:20.968Z,2.40
2023-10-09T04:39:51.013Z,2.05
2023-10-09T04:42:37.573Z,2.55
2023-10-09T04:45:23.186Z,2.40
2023-10-09T04:47:59.803Z,2.55
2023-10-09T04:51:08.073Z,2.42
2023-10-09T04:53:45.279Z,2.17
2023-10-09T04:56:18.165Z,2.33
2023-10-09T04:58:49.052Z,2.53
2023-10-09T05:01:37.809Z,2.47
2023-10-09T05:04:28.335Z,1.95
2023-10-09T05:06:57.478Z,2.28
2023-10-09T05:09:25.700Z,2.40
2023-10-09T05:12:11.095Z,2.80
2023-10-09T05:14:46.998Z,2.40
2023-10-09T05:17:28.463Z,2.55
2023-10-09T05:20:02.255Z,2.95
2023-10-09T05:22:40.093Z,2.55
2023-10-09T05:25:28.784Z,2.03
2023-10-09T05:28:18.096Z,2.33
2023-10-09T05:30:56.697Z,2.33
2023-10-09T05:33:38.051Z,2.40
2023-10-09T05:36:33.274Z,3.00
2023-10-09T05:39:19.760Z,2.97
2023-10-09T05:42:01.273Z,2.97
2023-10-09T05:44:48.045Z,2.78
2023-10-09T05:47:36.946Z,2.45
2023-10-09T05:50:38.121Z,3.08
2023-10-09T05:53:18.719Z,3.05
2023-10-09T05:56:10.112Z,3.28
2023-10-09T05:59:04.663Z,2.97
2023-10-09T06:01:51.099Z,3.50
2023-10-09T06:04:35.270Z,3.65
2023-10-09T06:07:15.281Z,3.30
2023-10-09T06:09:56.799Z,4.13
2023-10-09T06:12:54.027Z,3.58
2023-10-09T06:15:54.879Z,3.35
2023-10-09T06:18:34.798Z,2.83
2023-10-09T06:21:20.764Z,2.97
2023-10-09T06:24:16.706Z,3.42
2023-10-09T06:27:09.128Z,3.40
2023-10-09T06:29:38.682Z,3.13
2023-10-09T06:32:40.673Z,3.53
2023-10-09T06:35:23.272Z,2.88
2023-10-09T06:38:13.246Z,2.83
2023-10-09T06:41:18.811Z,2.90
2023-10-09T06:43:54.605Z,2.58
2023-10-09T06:46:45.225Z,3.40
2023-10-09T06:49:39.689Z,3.65
2023-10-09T06:52:28.854Z,2.88
2023-10-09T06:55:05.010Z,3.25
2023-10-09T06:57:51.680Z,4.15
2023-10-09T07:00:38.292Z,4.20
2023-10-09T07:03:12.920Z,3.90
2023-10-09T07:06:01.925Z,3.83
2023-10-09T07:08:39.527Z,3.70
2023-10-09T07:11:39.974Z,4.25
2023-10-09T07:14:34.161Z,4.95
2023-10-09T07:17:05.635Z,4.32
2023-10-09T07:19:57.719Z,4.40
2023-10-09T07:22:30.939Z,5.30
2023-10-09T07:25:17.085Z,4.38
2023-10-09T07:27:48.124Z,3.95
2023-10-09T07:30:33.782Z,4.13
2023-10-09T07:33:17.992Z,4.60
2023-10-09T07:36:00.713Z,5.88
2023-10-09T07:41:21.896Z,5.78
2023-10-09T07:43:52.203Z,4.53
2023-10-09T07:46:34.299Z,4.68
2023-10-09T07:49:10.934Z,4.80
2023-10-09T07:51:45.435Z,4.75
2023-10-09T07:54:16.318Z,4.55
2023-10-09T07:56:51.221Z,4.25
2023-10-09T07:59:21.106Z,4.47
2023-10-09T08:01:54.700Z,3.88
2023-10-09T08:04:39.328Z,4.18
2023-10-09T08:08:06.158Z,4.35
2023-10-09T08:10:14.251Z,4.63
2023-10-09T08:12:57.208Z,3.95
2023-10-09T08:15:35.941Z,3.63
2023-10-09T08:18:11.628Z,3.80
2023-10-09T08:21:12.589Z,3.88
2023-10-09T08:23:54.490Z,3.55
2023-10-09T08:26:32.796Z,4.25
2023-10-09T08:29:15.672Z,6.20
2023-10-09T08:31:48.170Z,16.90
2023-10-09T08:36:58.346Z,7.57
2023-10-09T08:39:34.652Z,4.32
2023-10-09T08:42:06.645Z,5.28
2023-10-09T08:44:36.979Z,5.60
2023-10-09T08:47:07.078Z,5.50
2023-10-09T08:49:38.574Z,5.40
2023-10-09T08:52:07.957Z,4.63
2023-10-09T08:54:36.681Z,4.53
2023-10-09T08:57:06.151Z,4.63
2023-10-09T08:59:47.612Z,4.13
2023-10-09T09:04:51.819Z,4.40
2023-10-09T09:07:30.256Z,4.40
2023-10-09T09:10:05.902Z,4.50
2023-10-09T09:12:39.135Z,4.32
2023-10-09T09:15:22.229Z,4.13
2023-10-09T09:17:55.235Z,4.28
2023-10-09T09:20:29.104Z,3.72
2023-10-09T09:22:57.904Z,4.03
2023-10-09T09:25:44.632Z,4.28
2023-10-09T09:28:20.953Z,3.97
2023-10-09T09:30:52.805Z,4.13
2023-10-09T09:33:31.848Z,3.55
2023-10-09T09:36:07.532Z,3.72
2023-10-09T09:38:49.298Z,3.75
2023-10-09T09:41:25.655Z,4.32
2023-10-09T09:43:58.584Z,3.60
2023-10-09T09:46:35.095Z,4.07
2023-10-09T09:49:07.157Z,3.92
2023-10-09T09:51:37.224Z,4.57
2023-10-09T09:54:14.213Z,3.88
2023-10-09T09:56:50.034Z,3.85
2023-10-09T09:59:26.826Z,4.95
2023-10-09T10:01:59.465Z,4.05
2023-10-09T10:04:36.510Z,3.72
2023-10-09T10:07:10.670Z,4.07
2023-10-09T10:09:45.773Z,4.40
2023-10-09T10:12:16.163Z,4.40
2023-10-09T10:14:58.205Z,3.35
2023-10-09T10:20:26.726Z,3.15
2023-10-09T10:23:22.232Z,3.17
2023-10-09T10:26:01.745Z,2.88
2023-10-09T10:28:40.273Z,2.83
2023-10-09T10:31:10.964Z,2.60
2023-10-09T10:34:12.443Z,2.92
2023-10-09T10:36:53.724Z,2.80
2023-10-09T10:39:40.949Z,2.95
2023-10-09T10:42:15.822Z,2.42
2023-10-09T10:44:46.334Z,2.45
2023-10-09T10:47:26.098Z,2.80
2023-10-09T10:50:00.820Z,2.78
2023-10-09T10:52:44.313Z,2.88
2023-10-09T10:55:36.334Z,2.65
2023-10-09T10:58:11.797Z,2.55
2023-10-09T11:00:57.967Z,2.25
2023-10-09T11:03:37.273Z,2.55
2023-10-09T11:06:16.985Z,2.38
2023-10-09T11:08:56.079Z,2.70
2023-10-09T11:11:34.624Z,2.53
2023-10-09T11:14:17.427Z,2.55
2023-10-09T11:16:48.931Z,3.00
2023-10-09T11:19:30.412Z,2.38
2023-10-09T11:22:17.926Z,2.30
2023-10-09T11:25:01.935Z,2.40
2023-10-09T11:27:34.270Z,2.30
2023-10-09T11:30:27.860Z,2.88
2023-10-09T11:33:06.288Z,2.35
2023-10-09T11:35:37.211Z,2.65
2023-10-09T11:38:23.719Z,2.30
2023-10-09T11:41:07.057Z,2.38
2023-10-09T11:43:54.633Z,5.90
2023-10-09T11:46:50.879Z,17.98
2023-10-09T11:49:45.478Z,7.22
2023-10-09T11:52:31.170Z,4.60
2023-10-09T11:55:02.298Z,3.92
2023-10-09T11:57:35.026Z,6.73
2023-10-09T12:00:26.161Z,3.72
2023-10-09T12:02:54.804Z,2.55
2023-10-09T12:05:29.407Z,3.03
2023-10-09T12:08:03.098Z,2.60
2023-10-09T12:10:31.534Z,1.90
2023-10-09T12:13:05.959Z,2.55
2023-10-09T12:15:39.442Z,2.00
2023-10-09T12:18:17.320Z,3.00
2023-10-09T12:20:51.985Z,2.40
2023-10-09T12:23:22.543Z,2.75
2023-10-09T12:25:58.189Z,2.58
2023-10-09T12:28:27.085Z,2.50
2023-10-09T12:31:02.650Z,2.47
2023-10-09T12:33:32.260Z,2.65
2023-10-09T12:36:02.674Z,2.53
2023-10-09T12:38:34.256Z,2.60
2023-10-09T12:41:09.769Z,2.20
2023-10-09T12:43:39.902Z,2.30
2023-10-09T12:46:10.594Z,3.00
2023-10-09T12:48:39.153Z,2.50
2023-10-09T12:51:07.585Z,2.60
2023-10-09T12:53:41.321Z,2.63
2023-10-09T12:56:10.631Z,2.60
2023-10-09T12:58:43.351Z,3.00
2023-10-09T13:01:14.171Z,2.80
2023-10-09T13:03:42.804Z,2.40
2023-10-09T13:06:13.326Z,2.42
2023-10-09T13:08:42.814Z,2.40
2023-10-09T13:11:17.849Z,2.78
2023-10-09T13:13:52.272Z,2.80
2023-10-09T13:16:25.331Z,2.45
2023-10-09T13:18:56.353Z,2.75
2023-10-09T13:21:27.426Z,2.58
2023-10-09T13:23:58.883Z,2.60
2023-10-09T13:26:34.182Z,2.33
2023-10-09T13:29:05.682Z,2.17
2023-10-09T13:31:38.975Z,2.72
2023-10-09T13:34:11.315Z,2.60
2023-10-09T13:36:41.370Z,2.83
2023-10-09T13:39:27.404Z,2.25
2023-10-09T13:42:00.952Z,2.28
2023-10-09T13:44:30.880Z,2.38
2023-10-09T13:47:03.006Z,2.45
2023-10-09T13:49:32.484Z,2.83
2023-10-09T13:52:03.006Z,2.13
2023-10-09T13:54:41.219Z,2.50
2023-10-09T13:57:12.379Z,2.22
2023-10-09T13:59:50.685Z,2.55
2023-10-09T14:02:24.170Z,2.45
2023-10-09T14:04:53.721Z,2.53
2023-10-09T14:07:24.338Z,2.58
2023-10-09T14:10:09.580Z,2.10
2023-10-09T14:12:41.748Z,2.42
2023-10-09T14:15:19.302Z,2.58
2023-10-09T14:17:57.511Z,2.22
2023-10-09T14:20:32.880Z,2.40
2023-10-09T14:23:10.693Z,2.05
2023-10-09T14:25:41.298Z,2.95
2023-10-09T14:28:16.590Z,2.60
2023-10-09T14:30:45.950Z,2.72
2023-10-09T14:33:24.547Z,2.70
2023-10-09T14:35:54.510Z,3.22
2023-10-09T14:41:01.064Z,2.03
2023-10-09T14:43:35.076Z,2.13
2023-10-09T14:46:11.958Z,2.80
2023-10-09T14:48:42.407Z,2.40
2023-10-09T14:51:14.619Z,2.80
2023-10-09T14:56:17.089Z,2.47
2023-10-09T14:58:51.308Z,2.72
2023-10-09T15:01:21.804Z,2.72
2023-10-09T15:03:56.503Z,2.60
2023-10-09T15:06:28.241Z,2.58
2023-10-09T15:11:31.844Z,2.53
2023-10-09T15:14:00.769Z,2.80
2023-10-09T15:16:31.992Z,2.55
2023-10-09T15:24:03.502Z,2.50
2023-10-09T15:26:34.874Z,2.53
2023-10-09T15:29:08.153Z,3.05
2023-10-09T15:31:36.895Z,2.40
2023-10-09T15:34:09.877Z,2.58
2023-10-09T15:36:38.830Z,3.17
2023-10-09T15:39:12.944Z,3.80
2023-10-09T15:41:41.924Z,3.10
2023-10-09T15:44:10.528Z,3.10
2023-10-09T15:46:41.316Z,3.42
2023-10-09T15:49:12.959Z,3.33
2023-10-09T15:51:42.009Z,3.75
2023-10-09T15:54:14.004Z,3.83
2023-10-09T15:56:47.292Z,3.30
2023-10-09T15:59:20.860Z,3.70
2023-10-09T16:01:50.087Z,3.15
2023-10-09T16:04:22.113Z,2.92
2023-10-09T16:06:53.745Z,3.30
2023-10-09T16:11:52.732Z,3.10
2023-10-09T16:14:21.383Z,3.35
2023-10-09T16:16:57.602Z,3.42
2023-10-09T16:19:29.553Z,3.03
2023-10-09T16:21:59.243Z,3.45
2023-10-09T16:24:35.398Z,4.13
2023-10-09T16:27:05.154Z,4.97
2023-10-09T16:29:33.956Z,4.97
2023-10-09T16:32:02.557Z,5.15
2023-10-09T16:34:33.689Z,5.22
2023-10-09T16:37:02.260Z,3.83
2023-10-09T16:39:39.415Z,3.67
2023-10-09T16:42:11.021Z,3.88
2023-10-09T16:47:12.774Z,5.28
2023-10-09T16:49:50.627Z,5.00
2023-10-09T16:52:19.863Z,5.13
2023-10-09T16:54:48.241Z,5.03
2023-10-09T16:57:17.852Z,5.10
2023-10-09T16:59:47.676Z,5.13
2023-10-09T17:02:23.883Z,4.97
2023-10-09T17:05:10.928Z,5.57
2023-10-09T17:07:40.625Z,5.32
2023-10-09T17:10:16.200Z,6.03
2023-10-09T17:12:47.705Z,6.40
2023-10-09T17:15:19.716Z,7.20
2023-10-09T17:20:23.052Z,6.78
2023-10-09T17:22:52.040Z,6.00
2023-10-09T17:25:21.480Z,5.68
2023-10-09T17:27:49.864Z,5.43
2023-10-09T17:30:22.306Z,5.50
2023-10-09T17:32:52.175Z,6.15
2023-10-09T17:35:22.156Z,4.63
2023-10-09T17:37:50.564Z,5.10
2023-10-09T17:40:22.017Z,5.88
2023-10-09T17:42:53.451Z,6.35
2023-10-09T17:45:24.350Z,7.15
2023-10-09T17:47:54.719Z,9.90
2023-10-09T17:50:26.009Z,6.78
2023-10-09T17:52:55.722Z,6.43
2023-10-09T17:55:24.650Z,7.55
2023-10-09T17:57:53.475Z,7.45
2023-10-09T18:00:24.827Z,10.90
2023-10-09T18:02:54.796Z,9.18
2023-10-09T18:05:31.399Z,9.70
2023-10-09T18:08:02.761Z,10.88
2023-10-09T18:10:37.056Z,11.27
2023-10-09T18:13:07.275Z,9.13
2023-10-09T18:15:39.578Z,9.50
2023-10-09T18:18:21.371Z,10.63
2023-10-09T18:21:07.146Z,13.48
2023-10-09T18:23:39.407Z,15.32
2023-10-09T18:26:10.640Z,14.80
2023-10-09T18:31:20.845Z,14.70
2023-10-09T18:34:05.119Z,14.20
2023-10-09T18:36:36.830Z,16.00
2023-10-09T18:39:15.625Z,15.18
2023-10-09T18:41:45.869Z,14.80
2023-10-09T18:44:16.471Z,16.33
2023-10-09T18:46:46.649Z,16.65
2023-10-09T18:49:20.750Z,21.00
2023-10-09T18:51:52.616Z,24.17
2023-10-09T18:54:21.467Z,20.60
2023-10-09T18:56:56.072Z,19.20
2023-10-09T18:59:24.862Z,18.65
2023-10-09T19:01:57.491Z,18.25
2023-10-09T19:04:26.264Z,18.52
2023-10-09T19:06:59.350Z,19.00
2023-10-09T19:09:29.708Z,19.48
2023-10-09T19:12:00.292Z,18.75
2023-10-09T19:14:32.886Z,19.65
2023-10-09T19:17:04.524Z,16.13
2023-10-09T19:19:36.658Z,17.38
2023-10-09T19:22:07.199Z,20.90
2023-10-09T19:24:38.383Z,19.73
2023-10-09T19:27:12.872Z,19.42
2023-10-09T19:29:48.824Z,17.55
2023-10-09T19:32:18.974Z,16.98
2023-10-09T19:34:48.608Z,17.75
2023-10-09T19:37:22.917Z,18.25
2023-10-09T19:39:53.325Z,15.68
2023-10-09T19:42:25.081Z,16.27
2023-10-09T19:44:54.317Z,14.20
2023-10-09T19:47:24.577Z,16.08
2023-10-09T19:49:53.226Z,15.77
2023-10-09T19:52:24.192Z,14.38
2023-10-09T19:54:57.167Z,13.75
2023-10-09T19:57:26.968Z,13.23
2023-10-09T19:59:56.482Z,14.88
2023-10-09T20:02:26.230Z,13.20
2023-10-09T20:04:56.139Z,14.13
2023-10-09T20:07:30.843Z,12.80
2023-10-09T20:10:02.778Z,12.75
2023-10-09T20:12:31.779Z,13.05
2023-10-09T20:15:04.203Z,13.85
2023-10-09T20:17:34.287Z,13.52
2023-10-09T20:20:09.124Z,13.52
2023-10-09T20:22:42.710Z,15.02
2023-10-09T20:25:23.864Z,13.15
2023-10-09T20:27:53.942Z,12.30
2023-10-09T20:30:25.984Z,13.43
2023-10-09T20:32:54.381Z,13.32
2023-10-09T20:35:27.885Z,12.98
2023-10-09T20:38:02.981Z,13.68
2023-10-09T20:40:32.070Z,13.38
2023-10-09T20:43:03.732Z,12.77
2023-10-09T20:45:49.598Z,12.93
2023-10-09T20:48:18.393Z,13.52
2023-10-09T20:50:48.586Z,12.13
2023-10-09T20:53:18.425Z,12.05
2023-10-09T20:55:56.080Z,12.38
2023-10-09T20:58:25.761Z,12.00
2023-10-09T21:00:54.638Z,12.35
2023-10-09T21:03:26.334Z,13.73
2023-10-09T21:08:24.633Z,11.38
2023-10-09T21:10:53.040Z,12.25
2023-10-09T21:13:21.358Z,9.95
2023-10-09T21:15:49.954Z,10.27
2023-10-09T21:18:21.102Z,10.52
2023-10-09T21:20:49.882Z,11.00
2023-10-09T21:23:18.572Z,12.65
2023-10-09T21:25:48.818Z,16.35
2023-10-09T21:28:17.296Z,16.70
2023-10-09T21:30:47.692Z,19.17
2023-10-09T21:33:16.063Z,19.80
2023-10-09T21:35:44.751Z,21.80
2023-10-09T21:38:14.737Z,20.13
2023-10-09T21:40:49.256Z,13.60
2023-10-09T21:43:19.254Z,11.90
2023-10-09T21:45:53.177Z,10.48
2023-10-09T21:48:23.442Z,10.18
2023-10-09T21:50:52.142Z,10.55
2023-10-09T21:53:20.676Z,9.93
2023-10-09T21:55:49.065Z,11.80
2023-10-09T21:58:18.838Z,11.05
2023-10-09T22:00:50.403Z,11.18
2023-10-09T22:03:20.798Z,10.80
2023-10-09T22:05:49.695Z,13.38
2023-10-09T22:08:20.015Z,12.50
2023-10-09T22:10:48.976Z,12.73
2023-10-09T22:13:21.434Z,12.93
2023-10-09T22:15:56.525Z,12.95
2023-10-09T22:18:29.060Z,13.23
2023-10-09T22:20:58.304Z,12.35
2023-10-09T22:23:35.090Z,11.20
2023-10-09T22:26:04.986Z,13.13
2023-10-09T22:28:35.281Z,12.43
2023-10-09T22:31:05.320Z,12.13
2023-10-09T22:33:52.227Z,11.23
2023-10-09T22:36:38.204Z,11.68
2023-10-09T22:41:56.026Z,11.85
2023-10-09T22:44:39.118Z,11.95
2023-10-09T22:47:10.718Z,12.05
2023-10-09T22:49:40.310Z,13.48
2023-10-09T22:52:14.266Z,12.95
2023-10-09T22:54:44.155Z,13.43
2023-10-09T22:57:15.626Z,11.98
2023-10-09T22:59:52.007Z,11.25
2023-10-09T23:02:44.545Z,13.35
2023-10-09T23:05:18.758Z,12.13
2023-10-09T23:08:00.998Z,12.65
2023-10-09T23:13:15.932Z,8.63
2023-10-09T23:15:51.174Z,10.25
2023-10-09T23:18:34.589Z,9.93
2023-10-09T23:21:20.974Z,11.32
2023-10-09T23:24:09.662Z,10.73
2023-10-09T23:26:53.416Z,11.30
2023-10-09T23:29:30.741Z,10.30
2023-10-09T23:32:22.819Z,12.07
2023-10-09T23:34:56.870Z,9.90
2023-10-09T23:37:34.678Z,11.45
2023-10-09T23:40:09.174Z,10.98
2023-10-09T23:42:38.918Z,12.13
2023-10-09T23:45:09.605Z,12.82
2023-10-09T23:47:42.591Z,11.32
2023-10-09T23:50:19.746Z,12.60
2023-10-09T23:52:54.223Z,12.80
2023-10-09T23:55:29.215Z,12.25
2023-10-09T23:58:00.979Z,13.30
